createdAt,value
2019-01-08T00:02:20.866Z,83.20
2019-01-08T00:05:14.574Z,83.90
2019-01-08T00:07:59.158Z,82.90
2019-01-08T00:10:43.441Z,82.60
2019-01-08T00:13:29.751Z,82.50
2019-01-08T00:16:14.918Z,83.10
2019-01-08T00:18:59.791Z,83.20
2019-01-08T00:21:44.539Z,83.80
2019-01-08T00:24:29.373Z,83.80
2019-01-08T00:27:14.161Z,83.20
2019-01-08T00:29:59.499Z,83.10
2019-01-08T00:32:53.631Z,83.20
2019-01-08T00:35:47.242Z,83.80
2019-01-08T00:38:32.515Z,84.40
2019-01-08T00:41:27.423Z,84.70
2019-01-08T00:44:12.238Z,85.20
2019-01-08T00:46:57.083Z,84.80
2019-01-08T00:49:41.629Z,84.60
2019-01-08T00:52:26.235Z,85.20
2019-01-08T00:55:10.688Z,85.00
2019-01-08T00:58:04.158Z,85.30
2019-01-08T01:00:48.531Z,85.20
2019-01-08T01:03:33.087Z,84.70
2019-01-08T01:06:18.215Z,84.10
2019-01-08T01:09:03.374Z,84.60
2019-01-08T01:11:48.791Z,84.60
2019-01-08T01:14:44.484Z,84.70
2019-01-08T01:17:37.943Z,84.80
2019-01-08T01:20:22.446Z,85.00
2019-01-08T01:23:07.609Z,84.60
2019-01-08T01:25:52.434Z,84.70
2019-01-08T01:28:37.587Z,84.30
2019-01-08T01:31:30.928Z,84.70
2019-01-08T01:34:15.397Z,85.00
2019-01-08T01:36:59.982Z,84.80
2019-01-08T01:39:44.951Z,85.10
2019-01-08T01:42:39.550Z,84.80
2019-01-08T01:45:24.059Z,85.30
2019-01-08T01:48:08.330Z,85.00
2019-01-08T01:51:01.111Z,85.70
2019-01-08T01:53:45.731Z,86.20
2019-01-08T01:56:30.637Z,86.90
2019-01-08T01:59:15.398Z,87.40
2019-01-08T02:02:00.336Z,87.90
2019-01-08T02:04:45.066Z,87.90
2019-01-08T02:07:30.060Z,87.70
2019-01-08T02:10:14.624Z,88.20
2019-01-08T02:12:58.752Z,88.10
2019-01-08T02:15:52.207Z,88.40
2019-01-08T02:18:36.892Z,88.40
2019-01-08T02:21:21.447Z,87.60
2019-01-08T02:24:05.779Z,86.80
2019-01-08T02:26:59.489Z,86.40
2019-01-08T02:29:43.827Z,87.40
2019-01-08T02:32:28.619Z,88.20
2019-01-08T02:35:13.889Z,89.00
2019-01-08T02:37:58.824Z,88.70
2019-01-08T02:40:52.108Z,88.90
2019-01-08T02:43:36.883Z,88.20
2019-01-08T02:46:21.579Z,88.50
2019-01-08T02:49:06.513Z,88.10
2019-01-08T02:51:51.920Z,87.60
2019-01-08T02:54:36.566Z,87.10
2019-01-08T02:57:21.046Z,87.20
2019-01-08T03:00:05.959Z,86.80
2019-01-08T03:02:50.763Z,86.70
2019-01-08T03:05:35.524Z,86.00
2019-01-08T03:08:20.197Z,87.30
2019-01-08T03:11:04.344Z,87.00
2019-01-08T03:13:57.624Z,88.40
2019-01-08T03:16:42.136Z,89.30
2019-01-08T03:19:26.959Z,88.50
2019-01-08T03:22:11.703Z,88.70
2019-01-08T03:24:56.486Z,89.10
2019-01-08T03:27:40.903Z,88.60
2019-01-08T03:30:34.544Z,88.70
2019-01-08T03:33:18.859Z,88.80
2019-01-08T03:36:03.475Z,89.70
2019-01-08T03:38:48.120Z,90.10
2019-01-08T03:41:32.977Z,90.10
2019-01-08T03:44:17.823Z,90.10
2019-01-08T03:47:02.836Z,89.80
2019-01-08T03:49:47.743Z,89.70
2019-01-08T03:52:32.464Z,90.00
2019-01-08T03:55:17.524Z,90.00
2019-01-08T03:58:02.084Z,90.20
2019-01-08T04:00:46.899Z,90.20
2019-01-08T04:03:31.288Z,90.40
2019-01-08T04:06:15.834Z,90.60
2019-01-08T04:09:09.292Z,90.80
2019-01-08T04:11:54.167Z,91.00
2019-01-08T04:14:38.379Z,91.00
2019-01-08T04:17:23.097Z,90.70
2019-01-08T04:20:07.795Z,90.80
2019-01-08T04:22:52.392Z,90.70
2019-01-08T04:25:45.628Z,91.00
2019-01-08T04:28:30.255Z,91.30
2019-01-08T04:31:14.582Z,91.50
2019-01-08T04:33:59.472Z,91.30
2019-01-08T04:36:44.560Z,91.50
2019-01-08T04:39:29.376Z,91.60
2019-01-08T04:42:13.984Z,91.30
2019-01-08T04:44:58.676Z,91.20
2019-01-08T04:47:43.216Z,91.00
2019-01-08T04:50:36.336Z,90.90
2019-01-08T04:53:20.944Z,91.00
2019-01-08T04:56:05.826Z,90.90
2019-01-08T04:58:50.503Z,90.40
2019-01-08T05:01:35.457Z,90.70
2019-01-08T05:04:20.212Z,90.70
2019-01-08T05:07:04.807Z,90.70
2019-01-08T05:09:49.591Z,90.40
2019-01-08T05:12:34.271Z,90.50
2019-01-08T05:15:19.251Z,90.80
2019-01-08T05:18:04.203Z,90.90
2019-01-08T05:20:48.260Z,91.30
2019-01-08T05:23:41.556Z,91.20
2019-01-08T05:26:26.356Z,90.90
2019-01-08T05:29:10.763Z,91.00
2019-01-08T05:31:55.327Z,91.30
2019-01-08T05:34:48.610Z,91.30
2019-01-08T05:37:32.771Z,90.90
2019-01-08T05:40:17.758Z,91.20
2019-01-08T05:43:02.299Z,91.20
2019-01-08T05:45:46.851Z,91.00
2019-01-08T05:48:40.192Z,91.20
2019-01-08T05:51:24.914Z,91.60
2019-01-08T05:54:09.490Z,91.70
2019-01-08T05:56:54.120Z,91.20
2019-01-08T05:59:38.952Z,91.00
2019-01-08T06:02:23.608Z,90.80
2019-01-08T06:05:08.716Z,90.90
2019-01-08T06:07:53.408Z,90.80
2019-01-08T06:10:38.173Z,90.70
2019-01-08T06:13:22.890Z,90.50
2019-01-08T06:16:07.840Z,90.90
2019-01-08T06:18:52.483Z,91.40
2019-01-08T06:21:37.442Z,91.40
2019-01-08T06:24:21.555Z,91.20
2019-01-08T06:27:15.051Z,91.30
2019-01-08T06:30:13.343Z,91.40
2019-01-08T06:32:56.419Z,91.40
2019-01-08T06:35:49.909Z,91.50
2019-01-08T06:38:34.083Z,91.70
2019-01-08T06:41:19.047Z,91.40
2019-01-08T06:44:03.283Z,91.40
2019-01-08T06:46:56.950Z,91.40
2019-01-08T06:49:41.283Z,91.40
2019-01-08T06:52:26.231Z,91.40
2019-01-08T06:55:10.648Z,91.40
2019-01-08T06:57:55.062Z,91.00
2019-01-08T07:00:48.634Z,90.90
2019-01-08T07:03:33.443Z,91.00
2019-01-08T07:06:18.035Z,91.40
2019-01-08T07:09:03.413Z,91.30
2019-01-08T07:11:49.016Z,91.50
2019-01-08T07:14:33.595Z,91.80
2019-01-08T07:17:17.636Z,91.70
2019-01-08T07:20:11.455Z,91.40
2019-01-08T07:22:56.237Z,91.50
2019-01-08T07:25:42.287Z,91.80
2019-01-08T07:28:26.732Z,91.90
2019-01-08T07:31:10.871Z,91.70
2019-01-08T07:34:04.339Z,91.20
2019-01-08T07:36:49.037Z,90.70
2019-01-08T07:39:33.479Z,90.40
2019-01-08T07:42:18.005Z,90.30
2019-01-08T07:45:11.324Z,90.30
2019-01-08T07:47:55.843Z,89.40
2019-01-08T07:50:40.612Z,87.70
2019-01-08T07:53:24.287Z,87.30
2019-01-08T07:56:16.051Z,86.60
2019-01-08T07:59:09.497Z,86.60
2019-01-08T08:01:54.143Z,86.60
2019-01-08T08:04:38.594Z,86.70
2019-01-08T08:07:23.524Z,86.10
2019-01-08T08:10:07.691Z,85.20
2019-01-08T08:13:01.139Z,84.40
2019-01-08T08:15:45.539Z,84.50
2019-01-08T08:18:30.207Z,84.30
2019-01-08T08:21:14.667Z,83.70
2019-01-08T08:24:07.799Z,83.50
2019-01-08T08:26:52.691Z,83.90
2019-01-08T08:29:37.339Z,83.40
2019-01-08T08:32:21.671Z,83.90
2019-01-08T08:35:08.501Z,84.00
2019-01-08T08:37:52.386Z,83.90
2019-01-08T08:40:46.243Z,84.40
2019-01-08T08:43:31.243Z,85.10
2019-01-08T08:46:25.352Z,85.40
2019-01-08T08:49:19.071Z,85.90
2019-01-08T08:52:03.908Z,87.60
2019-01-08T08:54:48.769Z,87.50
2019-01-08T08:57:33.227Z,88.20
2019-01-08T09:00:17.490Z,87.70
2019-01-08T09:03:02.020Z,87.20
2019-01-08T09:05:55.548Z,87.30
2019-01-08T09:08:40.391Z,87.70
2019-01-08T09:11:24.798Z,86.90
2019-01-08T09:14:09.993Z,86.70
2019-01-08T09:16:54.960Z,86.20
2019-01-08T09:19:48.945Z,85.90
2019-01-08T09:22:43.399Z,86.00
2019-01-08T09:25:35.434Z,85.70
2019-01-08T09:28:20.296Z,85.60
2019-01-08T09:31:05.273Z,84.80
2019-01-08T09:33:59.006Z,83.70
2019-01-08T09:36:43.451Z,83.50
2019-01-08T09:39:28.117Z,82.40
2019-01-08T09:42:12.848Z,82.40
2019-01-08T09:44:57.863Z,81.40
2019-01-08T09:47:42.467Z,81.30
2019-01-08T09:50:27.604Z,80.70
2019-01-08T09:53:12.077Z,80.00
2019-01-08T09:56:06.659Z,80.00
2019-01-08T09:58:51.703Z,79.60
2019-01-08T10:01:36.275Z,80.00
2019-01-08T10:04:20.344Z,79.00
2019-01-08T10:07:04.847Z,78.40
2019-01-08T10:09:58.500Z,77.30
2019-01-08T10:12:42.571Z,76.80
2019-01-08T10:15:27.103Z,76.60
2019-01-08T10:18:12.076Z,76.90
2019-01-08T10:20:57.399Z,76.10
2019-01-08T10:23:42.248Z,74.50
2019-01-08T10:26:26.921Z,74.60
2019-01-08T10:29:11.880Z,72.70
2019-01-08T10:31:55.992Z,72.00
2019-01-08T10:34:41.003Z,70.90
2019-01-08T10:37:25.207Z,70.90
2019-01-08T10:40:18.528Z,69.20
2019-01-08T10:43:03.387Z,68.70
2019-01-08T10:45:49.031Z,69.00
2019-01-08T10:48:34.676Z,69.10
2019-01-08T10:51:19.496Z,69.90
2019-01-08T10:54:04.153Z,70.00
2019-01-08T10:56:58.028Z,70.10
2019-01-08T10:59:42.727Z,71.20
2019-01-08T11:02:27.402Z,70.20
2019-01-08T11:05:20.625Z,68.80
2019-01-08T11:08:05.450Z,68.40
2019-01-08T11:10:50.272Z,68.30
2019-01-08T11:13:35.197Z,69.10
2019-01-08T11:16:20.340Z,68.20
2019-01-08T11:19:14.307Z,64.30
2019-01-08T11:22:07.764Z,61.90
2019-01-08T11:24:52.365Z,65.50
2019-01-08T11:27:36.841Z,64.90
2019-01-08T11:30:21.559Z,63.40
2019-01-08T11:33:06.374Z,63.80
2019-01-08T11:35:51.027Z,64.80
2019-01-08T11:38:44.085Z,63.80
2019-01-08T11:41:29.034Z,63.30
2019-01-08T11:44:13.403Z,62.40
2019-01-08T11:46:57.848Z,63.50
2019-01-08T11:49:51.373Z,64.30
2019-01-08T11:52:36.041Z,65.40
2019-01-08T11:55:20.734Z,66.20
2019-01-08T11:58:05.732Z,67.20
2019-01-08T12:00:50.179Z,67.00
2019-01-08T12:03:34.659Z,65.90
2019-01-08T12:06:19.268Z,63.70
2019-01-08T12:09:04.292Z,64.20
2019-01-08T12:11:49.224Z,65.00
2019-01-08T12:14:33.911Z,64.70
2019-01-08T12:17:18.481Z,63.20
2019-01-08T12:20:03.624Z,62.30
2019-01-08T12:22:48.324Z,62.80
2019-01-08T12:25:33.125Z,62.80
2019-01-08T12:28:17.896Z,62.90
2019-01-08T12:31:03.013Z,62.50
2019-01-08T12:33:47.974Z,62.90
2019-01-08T12:36:32.371Z,63.00
2019-01-08T12:39:17.275Z,63.00
2019-01-08T12:42:01.995Z,62.50
2019-01-08T12:44:46.436Z,63.10
2019-01-08T12:47:39.527Z,63.10
2019-01-08T12:50:24.815Z,63.80
2019-01-08T12:53:10.980Z,63.70
2019-01-08T12:55:55.611Z,64.30
2019-01-08T12:58:40.459Z,63.60
2019-01-08T13:01:24.911Z,64.10
2019-01-08T13:04:09.368Z,64.60
2019-01-08T13:07:08.832Z,66.00
2019-01-08T13:09:53.072Z,66.80
2019-01-08T13:12:37.715Z,66.40
2019-01-08T13:15:22.778Z,66.40
2019-01-08T13:18:07.444Z,66.70
2019-01-08T13:20:52.235Z,67.00
2019-01-08T13:23:36.670Z,67.60
2019-01-08T13:26:21.416Z,68.60
2019-01-08T13:29:06.972Z,69.70
2019-01-08T13:31:51.639Z,69.90
2019-01-08T13:34:35.908Z,70.40
2019-01-08T13:37:20.708Z,71.20
2019-01-08T13:40:05.312Z,72.10
2019-01-08T13:42:50.055Z,72.90
2019-01-08T13:45:43.640Z,73.70
2019-01-08T13:48:28.323Z,75.20
2019-01-08T13:51:14.197Z,75.00
2019-01-08T13:53:58.808Z,76.50
2019-01-08T13:56:42.903Z,77.00
2019-01-08T13:59:27.169Z,75.90
2019-01-08T14:02:11.568Z,75.90
2019-01-08T14:04:56.448Z,76.20
2019-01-08T14:07:40.653Z,75.60
2019-01-08T14:10:34.555Z,76.20
2019-01-08T14:13:19.807Z,76.70
2019-01-08T14:16:13.384Z,76.80
2019-01-08T14:18:58.594Z,77.20
2019-01-08T14:21:52.308Z,78.10
2019-01-08T14:24:46.237Z,78.90
2019-01-08T14:27:30.687Z,79.40
2019-01-08T14:30:15.555Z,79.00
2019-01-08T14:33:00.280Z,78.60
2019-01-08T14:35:44.996Z,78.10
2019-01-08T14:38:29.932Z,78.20
2019-01-08T14:41:14.677Z,77.80
2019-01-08T14:43:59.866Z,78.20
2019-01-08T14:46:44.006Z,78.80
2019-01-08T14:49:28.568Z,78.80
2019-01-08T14:52:13.771Z,79.00
2019-01-08T14:54:58.400Z,79.50
2019-01-08T14:57:43.196Z,79.50
2019-01-08T15:00:28.042Z,79.50
2019-01-08T15:03:12.778Z,78.90
2019-01-08T15:05:57.609Z,78.90
2019-01-08T15:08:42.749Z,79.70
2019-01-08T15:11:27.335Z,79.60
2019-01-08T15:14:12.041Z,79.10
2019-01-08T15:16:56.792Z,78.70
2019-01-08T15:19:41.704Z,78.80
2019-01-08T15:22:26.727Z,78.90
2019-01-08T15:25:11.003Z,78.90
2019-01-08T15:28:04.914Z,78.80
2019-01-08T15:31:00.963Z,79.10
2019-01-08T15:33:45.557Z,78.80
2019-01-08T15:36:30.184Z,79.40
2019-01-08T15:39:15.324Z,79.90
2019-01-08T15:42:00.136Z,79.90
2019-01-08T15:44:44.212Z,80.30
2019-01-08T15:47:37.699Z,80.10
2019-01-08T15:50:22.452Z,80.70
2019-01-08T15:53:07.632Z,79.70
2019-01-08T15:56:01.449Z,80.00
2019-01-08T15:58:46.699Z,79.60
2019-01-08T16:01:40.424Z,79.40
2019-01-08T16:04:25.038Z,80.40
2019-01-08T16:07:09.805Z,80.40
2019-01-08T16:09:54.261Z,80.20
2019-01-08T16:12:38.507Z,81.00
2019-01-08T16:15:23.904Z,80.40
2019-01-08T16:18:08.560Z,79.40
2019-01-08T16:20:52.991Z,78.90
2019-01-08T16:23:46.500Z,79.20
2019-01-08T16:26:31.103Z,79.50
2019-01-08T16:29:15.951Z,79.40
2019-01-08T16:32:00.868Z,79.80
2019-01-08T16:34:45.555Z,80.30
2019-01-08T16:37:30.040Z,80.30
2019-01-08T16:40:14.583Z,80.70
2019-01-08T16:42:59.656Z,81.00
2019-01-08T16:45:44.320Z,82.20
2019-01-08T16:48:28.739Z,81.60
2019-01-08T16:51:21.916Z,83.10
2019-01-08T16:54:06.640Z,84.20
2019-01-08T16:56:51.263Z,84.50
2019-01-08T16:59:35.880Z,84.40
2019-01-08T17:02:20.655Z,83.20
2019-01-08T17:05:05.129Z,83.00
2019-01-08T17:07:58.369Z,82.30
2019-01-08T17:10:43.367Z,82.40
2019-01-08T17:13:27.715Z,82.30
2019-01-08T17:16:12.712Z,81.60
2019-01-08T17:18:57.607Z,80.90
2019-01-08T17:21:42.497Z,81.30
2019-01-08T17:24:27.162Z,81.10
2019-01-08T17:27:11.848Z,81.10
2019-01-08T17:29:56.391Z,81.40
2019-01-08T17:32:40.803Z,81.00
2019-01-08T17:35:34.078Z,79.50
2019-01-08T17:38:18.875Z,79.90
2019-01-08T17:41:03.088Z,79.80
2019-01-08T17:43:47.671Z,79.60
2019-01-08T17:46:41.051Z,81.00
2019-01-08T17:49:25.807Z,82.50
2019-01-08T17:52:11.759Z,80.40
2019-01-08T17:54:56.263Z,80.90
2019-01-08T17:57:41.064Z,80.80
2019-01-08T18:00:26.196Z,80.90
2019-01-08T18:03:11.084Z,81.70
2019-01-08T18:05:55.471Z,81.80
2019-01-08T18:08:40.647Z,81.30
2019-01-08T18:11:25.049Z,80.90
2019-01-08T18:14:09.774Z,81.70
2019-01-08T18:17:02.987Z,81.30
2019-01-08T18:19:47.970Z,80.70
2019-01-08T18:22:32.734Z,79.50
2019-01-08T18:25:17.327Z,79.80
2019-01-08T18:28:02.481Z,80.10
2019-01-08T18:30:47.339Z,79.30
2019-01-08T18:33:31.776Z,79.00
2019-01-08T18:36:16.659Z,78.80
2019-01-08T18:39:01.327Z,79.10
2019-01-08T18:41:47.627Z,79.80
2019-01-08T18:44:32.140Z,80.40
2019-01-08T18:47:16.884Z,80.70
2019-01-08T18:50:01.425Z,80.00
2019-01-08T18:52:54.779Z,79.90
2019-01-08T18:55:39.287Z,79.70
2019-01-08T18:58:24.100Z,80.00
2019-01-08T19:01:08.855Z,78.90
2019-01-08T19:03:59.748Z,79.30
2019-01-08T19:06:39.363Z,79.40
2019-01-08T19:09:32.822Z,79.60
2019-01-08T19:12:17.611Z,79.40
2019-01-08T19:15:02.305Z,78.30
2019-01-08T19:17:48.072Z,78.20
2019-01-08T19:20:33.101Z,78.90
2019-01-08T19:23:17.816Z,79.10
2019-01-08T19:26:02.814Z,79.00
2019-01-08T19:28:47.400Z,79.00
2019-01-08T19:31:32.216Z,78.60
2019-01-08T19:34:17.231Z,78.50
2019-01-08T19:37:01.936Z,78.40
2019-01-08T19:39:46.463Z,78.40
2019-01-08T19:42:31.296Z,78.70
2019-01-08T19:45:16.088Z,78.50
2019-01-08T19:48:01.228Z,78.40
2019-01-08T19:50:46.235Z,77.40
2019-01-08T19:53:31.167Z,77.90
2019-01-08T19:56:15.559Z,79.60
2019-01-08T19:58:59.967Z,80.40
2019-01-08T20:01:52.979Z,80.10
2019-01-08T20:04:37.446Z,78.50
2019-01-08T20:07:22.445Z,77.90
2019-01-08T20:10:06.896Z,77.10
2019-01-08T20:12:59.947Z,76.30
2019-01-08T20:15:44.963Z,75.70
2019-01-08T20:18:29.603Z,76.20
2019-01-08T20:21:14.144Z,75.10
2019-01-08T20:24:06.310Z,74.60
2019-01-08T20:26:46.224Z,73.60
2019-01-08T20:29:39.776Z,73.00
2019-01-08T20:32:24.530Z,73.10
2019-01-08T20:35:10.237Z,74.20
2019-01-08T20:37:54.619Z,75.20
2019-01-08T20:40:48.744Z,75.70
2019-01-08T20:43:42.041Z,75.80
2019-01-08T20:46:26.771Z,75.70
2019-01-08T20:49:11.751Z,76.20
2019-01-08T20:51:56.049Z,75.90
2019-01-08T20:54:40.760Z,75.60
2019-01-08T20:57:25.243Z,74.80
2019-01-08T21:00:10.875Z,74.90
2019-01-08T21:02:55.945Z,74.50
2019-01-08T21:05:41.684Z,74.00
2019-01-08T21:08:36.405Z,73.90
2019-01-08T21:11:21.403Z,73.70
2019-01-08T21:14:05.709Z,74.40
2019-01-08T21:16:50.033Z,74.50
2019-01-08T21:19:34.994Z,74.20
2019-01-08T21:22:20.152Z,73.80
2019-01-08T21:25:14.188Z,73.90
2019-01-08T21:27:58.967Z,74.50
2019-01-08T21:30:43.323Z,74.20
2019-01-08T21:33:27.640Z,74.50
2019-01-08T21:36:21.177Z,74.70
2019-01-08T21:39:05.975Z,74.20
2019-01-08T21:41:52.373Z,74.50
2019-01-08T21:44:36.496Z,74.90
2019-01-08T21:47:21.073Z,74.90
2019-01-08T21:50:14.916Z,75.20
2019-01-08T21:53:08.539Z,74.90
2019-01-08T21:55:53.159Z,74.70
2019-01-08T21:58:37.919Z,74.60
2019-01-08T22:01:22.552Z,75.10
2019-01-08T22:04:07.752Z,75.30
2019-01-08T22:06:52.109Z,75.60
2019-01-08T22:09:36.423Z,76.10
2019-01-08T22:12:29.820Z,75.60
2019-01-08T22:15:15.633Z,75.90
2019-01-08T22:18:00.314Z,75.40
2019-01-08T22:20:46.003Z,75.80
2019-01-08T22:23:31.020Z,75.70
2019-01-08T22:26:24.684Z,76.10
2019-01-08T22:29:09.027Z,76.10
2019-01-08T22:31:53.915Z,76.00
2019-01-08T22:34:38.572Z,76.00
2019-01-08T22:37:23.371Z,76.00
2019-01-08T22:40:07.888Z,75.90
2019-01-08T22:42:53.820Z,75.60
2019-01-08T22:45:47.791Z,75.10
2019-01-08T22:48:32.227Z,75.00
2019-01-08T22:51:16.763Z,75.00
2019-01-08T22:54:01.259Z,75.00
2019-01-08T22:56:45.803Z,75.10
2019-01-08T22:59:39.443Z,74.90
2019-01-08T23:02:33.216Z,74.80
2019-01-08T23:05:17.931Z,74.10
2019-01-08T23:08:02.664Z,73.60
2019-01-08T23:10:46.943Z,73.70
2019-01-08T23:13:41.763Z,74.10
2019-01-08T23:16:28.275Z,74.00
2019-01-08T23:19:13.159Z,74.10
2019-01-08T23:22:07.034Z,73.70
2019-01-08T23:24:51.675Z,74.00
2019-01-08T23:27:36.267Z,74.30
2019-01-08T23:30:21.083Z,74.70
2019-01-08T23:33:05.776Z,75.00
2019-01-08T23:35:50.861Z,74.90
2019-01-08T23:38:35.185Z,74.60
2019-01-08T23:41:19.947Z,74.90
2019-01-08T23:44:04.487Z,75.40
2019-01-08T23:46:57.812Z,74.90
2019-01-08T23:49:41.915Z,75.00
2019-01-08T23:52:26.695Z,76.20
2019-01-08T23:55:11.332Z,77.40
2019-01-08T23:58:04.276Z,78.60
